sensor_id;sensor_type;location;lat;lon;timestamp;pressure;altitude;pressure_sealevel;temperature;humidity
44103;BME280;29769;42.178;24.742;2022-10-14T00:01:06;100073.81;;;12.45;100.00
44103;BME280;29769;42.178;24.742;2022-10-14T00:03:52;100071.16;;;12.47;100.00
44103;BME280;29769;42.178;24.742;2022-10-14T00:06:37;100072.16;;;12.40;100.00
44103;BME280;29769;42.178;24.742;2022-10-14T00:09:22;100066.97;;;12.35;100.00
44103;BME280;29769;42.178;24.742;2022-10-14T00:12:06;100059.94;;;12.34;100.00
44103;BME280;29769;42.178;24.742;2022-10-14T00:14:51;100067.81;;;12.36;100.00
44103;BME280;29769;42.178;24.742;2022-10-14T00:17:36;100063.34;;;12.41;100.00
44103;BME280;29769;42.178;24.742;2022-10-14T00:20:20;100063.31;;;12.42;100.00
44103;BME280;29769;42.178;24.742;2022-10-14T00:23:05;100059.78;;;12.43;100.00
44103;BME280;29769;42.178;24.742;2022-10-14T00:25:49;100064.03;;;12.52;100.00
44103;BME280;29769;42.178;24.742;2022-10-14T00:28:35;100070.09;;;12.57;100.00
44103;BME280;29769;42.178;24.742;2022-10-14T00:31:19;100067.38;;;12.62;100.00
44103;BME280;29769;42.178;24.742;2022-10-14T00:34:04;100075.25;;;12.65;100.00
44103;BME280;29769;42.178;24.742;2022-10-14T00:36:50;100065.50;;;12.68;100.00
44103;BME280;29769;42.178;24.742;2022-10-14T00:39:36;100063.69;;;12.72;100.00
44103;BME280;29769;42.178;24.742;2022-10-14T00:42:20;100058.38;;;12.73;100.00
44103;BME280;29769;42.178;24.742;2022-10-14T00:45:10;100059.19;;;12.77;100.00
44103;BME280;29769;42.178;24.742;2022-10-14T00:47:56;100055.53;;;12.84;100.00
44103;BME280;29769;42.178;24.742;2022-10-14T00:50:41;100052.78;;;12.90;100.00
44103;BME280;29769;42.178;24.742;2022-10-14T00:53:27;100056.28;;;12.90;100.00
44103;BME280;29769;42.178;24.742;2022-10-14T00:56:15;100056.34;;;12.89;100.00
44103;BME280;29769;42.178;24.742;2022-10-14T00:59:01;100062.50;;;12.88;100.00
44103;BME280;29769;42.178;24.742;2022-10-14T01:01:47;100061.66;;;12.86;100.00
44103;BME280;29769;42.178;24.742;2022-10-14T01:04:32;100066.94;;;12.86;100.00
44103;BME280;29769;42.178;24.742;2022-10-14T01:07:27;100064.28;;;12.87;100.00
44103;BME280;29769;42.178;24.742;2022-10-14T01:15:55;100059.94;;;12.85;100.00
44103;BME280;29769;42.178;24.742;2022-10-14T01:18:52;100061.72;;;12.83;100.00
44103;BME280;29769;42.178;24.742;2022-10-14T01:21:41;100057.31;;;12.83;100.00
44103;BME280;29769;42.178;24.742;2022-10-14T01:35:55;100042.44;;;12.78;100.00
44103;BME280;29769;42.178;24.742;2022-10-14T01:38:44;100037.16;;;12.78;100.00
44103;BME280;29769;42.178;24.742;2022-10-14T01:41:38;100033.53;;;12.83;100.00
44103;BME280;29769;42.178;24.742;2022-10-14T01:44:23;100037.88;;;12.86;100.00
44103;BME280;29769;42.178;24.742;2022-10-14T01:47:11;100025.47;;;12.91;100.00
44103;BME280;29769;42.178;24.742;2022-10-14T01:50:01;100026.31;;;12.93;100.00
44103;BME280;29769;42.178;24.742;2022-10-14T01:52:51;100025.53;;;12.89;100.00
44103;BME280;29769;42.178;24.742;2022-10-14T01:55:38;100021.16;;;12.87;100.00
44103;BME280;29769;42.178;24.742;2022-10-14T01:58:24;100023.75;;;12.90;100.00
44103;BME280;29769;42.178;24.742;2022-10-14T02:01:10;100026.31;;;12.93;100.00
44103;BME280;29769;42.178;24.742;2022-10-14T02:03:54;100020.16;;;12.94;100.00
44103;BME280;29769;42.178;24.742;2022-10-14T02:06:39;100021.81;;;12.98;100.00
44103;BME280;29769;42.178;24.742;2022-10-14T02:12:16;100023.75;;;12.90;100.00
44103;BME280;29769;42.178;24.742;2022-10-14T02:17:56;100022.78;;;12.48;100.00
44103;BME280;29769;42.178;24.742;2022-10-14T02:20:45;100022.13;;;12.35;100.00
44103;BME280;29769;42.178;24.742;2022-10-14T02:23:53;100021.28;;;12.32;100.00
44103;BME280;29769;42.178;24.742;2022-10-14T02:26:41;100019.50;;;12.34;100.00
44103;BME280;29769;42.178;24.742;2022-10-14T02:29:26;100013.28;;;12.36;100.00
44103;BME280;29769;42.178;24.742;2022-10-14T02:32:12;100011.25;;;12.54;100.00
44103;BME280;29769;42.178;24.742;2022-10-14T02:34:58;100009.34;;;12.60;100.00
44103;BME280;29769;42.178;24.742;2022-10-14T02:37:45;100019.66;;;12.72;100.00
44103;BME280;29769;42.178;24.742;2022-10-14T02:43:19;100012.16;;;12.97;100.00
44103;BME280;29769;42.178;24.742;2022-10-14T02:46:04;100013.66;;;13.09;100.00
44103;BME280;29769;42.178;24.742;2022-10-14T02:48:49;100006.53;;;13.15;100.00
44103;BME280;29769;42.178;24.742;2022-10-14T02:51:33;100002.91;;;13.21;100.00
44103;BME280;29769;42.178;24.742;2022-10-14T02:54:19;100000.94;;;13.30;100.00
44103;BME280;29769;42.178;24.742;2022-10-14T02:57:04;100006.06;;;13.38;100.00
44103;BME280;29769;42.178;24.742;2022-10-14T02:59:48;99996.34;;;13.39;100.00
44103;BME280;29769;42.178;24.742;2022-10-14T03:02:32;100006.88;;;13.40;100.00
44103;BME280;29769;42.178;24.742;2022-10-14T03:05:17;100012.22;;;13.39;100.00
44103;BME280;29769;42.178;24.742;2022-10-14T03:08:01;100003.31;;;13.41;100.00
44103;BME280;29769;42.178;24.742;2022-10-14T03:10:48;99994.44;;;13.45;100.00
44103;BME280;29769;42.178;24.742;2022-10-14T03:13:33;99996.19;;;13.46;100.00
44103;BME280;29769;42.178;24.742;2022-10-14T03:16:18;99994.44;;;13.45;100.00
44103;BME280;29769;42.178;24.742;2022-10-14T03:19:03;99989.13;;;13.47;100.00
44103;BME280;29769;42.178;24.742;2022-10-14T03:21:58;99990.88;;;13.46;100.00
44103;BME280;29769;42.178;24.742;2022-10-14T03:24:44;99986.47;;;13.47;100.00
44103;BME280;29769;42.178;24.742;2022-10-14T03:27:43;99982.00;;;13.50;100.00
44103;BME280;29769;42.178;24.742;2022-10-14T03:30:31;99981.13;;;13.50;100.00
44103;BME280;29769;42.178;24.742;2022-10-14T03:33:21;99981.19;;;13.47;100.00
44103;BME280;29769;42.178;24.742;2022-10-14T03:36:12;99974.22;;;13.44;100.00
44103;BME280;29769;42.178;24.742;2022-10-14T03:39:10;99983.75;;;13.50;100.00
44103;BME280;29769;42.178;24.742;2022-10-14T03:42:03;99978.63;;;13.44;100.00
44103;BME280;29769;42.178;24.742;2022-10-14T03:44:56;99975.13;;;13.43;100.00
44103;BME280;29769;42.178;24.742;2022-10-14T03:47:45;99972.69;;;13.34;100.00
44103;BME280;29769;42.178;24.742;2022-10-14T03:50:29;99967.50;;;13.29;100.00
44103;BME280;29769;42.178;24.742;2022-10-14T03:53:15;99970.94;;;13.31;100.00
44103;BME280;29769;42.178;24.742;2022-10-14T03:56:01;99973.59;;;13.31;100.00
44103;BME280;29769;42.178;24.742;2022-10-14T03:58:45;99966.72;;;13.24;100.00
44103;BME280;29769;42.178;24.742;2022-10-14T04:01:32;99977.38;;;13.21;100.00
44103;BME280;29769;42.178;24.742;2022-10-14T04:04:36;99973.84;;;13.21;100.00
44103;BME280;29769;42.178;24.742;2022-10-14T04:07:22;99970.34;;;13.19;100.00
44103;BME280;29769;42.178;24.742;2022-10-14T04:10:11;99969.47;;;13.18;100.00
44103;BME280;29769;42.178;24.742;2022-10-14T04:13:01;99971.31;;;13.16;100.00
44103;BME280;29769;42.178;24.742;2022-10-14T04:15:51;99968.59;;;13.18;100.00
44103;BME280;29769;42.178;24.742;2022-10-14T04:18:41;99967.91;;;13.08;100.00
44103;BME280;29769;42.178;24.742;2022-10-14T04:21:28;99970.78;;;12.98;100.00
44103;BME280;29769;42.178;24.742;2022-10-14T04:24:15;99966.50;;;12.90;100.00
44103;BME280;29769;42.178;24.742;2022-10-14T04:27:04;99974.72;;;12.77;100.00
44103;BME280;29769;42.178;24.742;2022-10-14T04:30:05;99975.44;;;12.85;100.00
44103;BME280;29769;42.178;24.742;2022-10-14T04:33:00;99971.03;;;12.85;100.00
44103;BME280;29769;42.178;24.742;2022-10-14T04:35:44;99968.78;;;12.66;100.00
44103;BME280;29769;42.178;24.742;2022-10-14T04:38:37;99976.41;;;12.33;100.00
44103;BME280;29769;42.178;24.742;2022-10-14T04:41:24;99977.22;;;12.37;100.00
44103;BME280;29769;42.178;24.742;2022-10-14T04:44:10;99978.63;;;12.58;100.00
44103;BME280;29769;42.178;24.742;2022-10-14T04:47:02;99978.97;;;12.39;100.00
44103;BME280;29769;42.178;24.742;2022-10-14T04:49:47;99981.53;;;12.42;100.00
44103;BME280;29769;42.178;24.742;2022-10-14T04:52:36;99978.66;;;12.55;100.00
44103;BME280;29769;42.178;24.742;2022-10-14T04:55:26;99981.03;;;12.70;100.00
44103;BME280;29769;42.178;24.742;2022-10-14T04:58:11;99975.44;;;12.85;100.00
44103;BME280;29769;42.178;24.742;2022-10-14T05:00:59;99975.19;;;12.97;100.00
44103;BME280;29769;42.178;24.742;2022-10-14T05:03:56;99972.28;;;13.12;100.00
44103;BME280;29769;42.178;24.742;2022-10-14T05:06:42;99976.38;;;13.25;100.00
44103;BME280;29769;42.178;24.742;2022-10-14T05:09:29;99973.25;;;13.47;100.00
44103;BME280;29769;42.178;24.742;2022-10-14T05:12:15;99969.34;;;13.63;100.00
44103;BME280;29769;42.178;24.742;2022-10-14T05:15:07;99963.69;;;13.79;100.00
44103;BME280;29769;42.178;24.742;2022-10-14T05:17:58;99961.53;;;13.95;100.00
44103;BME280;29769;42.178;24.742;2022-10-14T05:20:56;99969.00;;;14.13;100.00
44103;BME280;29769;42.178;24.742;2022-10-14T05:23:43;99966.19;;;14.21;100.00
44103;BME280;29769;42.178;24.742;2022-10-14T05:26:28;99972.88;;;14.34;100.00
44103;BME280;29769;42.178;24.742;2022-10-14T05:29:16;99964.53;;;14.51;100.00
44103;BME280;29769;42.178;24.742;2022-10-14T05:32:00;99958.88;;;14.63;100.00
44103;BME280;29769;42.178;24.742;2022-10-14T05:34:52;99966.28;;;14.83;100.00
44103;BME280;29769;42.178;24.742;2022-10-14T05:37:45;99969.72;;;15.17;100.00
44103;BME280;29769;42.178;24.742;2022-10-14T05:40:29;99972.25;;;15.79;100.00
44103;BME280;29769;42.178;24.742;2022-10-14T05:43:15;99972.00;;;16.39;95.33
44103;BME280;29769;42.178;24.742;2022-10-14T05:46:02;99967.50;;;16.90;87.79
44103;BME280;29769;42.178;24.742;2022-10-14T05:48:50;99969.66;;;17.51;82.43
44103;BME280;29769;42.178;24.742;2022-10-14T05:51:35;99969.22;;;18.06;77.48
44103;BME280;29769;42.178;24.742;2022-10-14T05:54:28;99966.66;;;18.45;73.19
44103;BME280;29769;42.178;24.742;2022-10-14T05:57:14;99960.28;;;18.70;70.30
44103;BME280;29769;42.178;24.742;2022-10-14T05:59:59;99971.16;;;19.04;67.95
44103;BME280;29769;42.178;24.742;2022-10-14T06:02:44;99969.88;;;19.51;65.91
44103;BME280;29769;42.178;24.742;2022-10-14T06:05:34;99972.25;;;20.12;63.12
44103;BME280;29769;42.178;24.742;2022-10-14T06:08:20;99966.41;;;20.57;60.32
44103;BME280;29769;42.178;24.742;2022-10-14T06:11:05;99967.00;;;21.12;58.00
44103;BME280;29769;42.178;24.742;2022-10-14T06:13:51;99959.91;;;21.44;56.23
44103;BME280;29769;42.178;24.742;2022-10-14T06:16:35;99970.69;;;21.27;56.03
44103;BME280;29769;42.178;24.742;2022-10-14T06:19:24;99972.78;;;21.05;56.16
44103;BME280;29769;42.178;24.742;2022-10-14T06:22:08;99935.91;;;19.91;59.18
44103;BME280;29769;42.178;24.742;2022-10-14T06:24:52;99969.88;;;20.06;60.13
44103;BME280;29769;42.178;24.742;2022-10-14T06:27:37;99966.81;;;20.14;60.26
44103;BME280;29769;42.178;24.742;2022-10-14T06:30:21;99963.72;;;20.04;60.52
44103;BME280;29769;42.178;24.742;2022-10-14T06:33:06;99961.47;;;19.78;61.52
44103;BME280;29769;42.178;24.742;2022-10-14T06:35:51;99973.03;;;20.14;61.64
44103;BME280;29769;42.178;24.742;2022-10-14T06:38:36;99975.50;;;20.88;59.00
44103;BME280;29769;42.178;24.742;2022-10-14T06:41:20;99971.50;;;21.29;56.49
44103;BME280;29769;42.178;24.742;2022-10-14T06:44:06;99979.16;;;21.35;55.23
44103;BME280;29769;42.178;24.742;2022-10-14T06:46:51;99981.25;;;21.46;55.31
44103;BME280;29769;42.178;24.742;2022-10-14T06:49:36;99974.72;;;21.51;55.05
44103;BME280;29769;42.178;24.742;2022-10-14T06:52:20;99980.41;;;21.77;53.88
44103;BME280;29769;42.178;24.742;2022-10-14T06:55:05;99978.25;;;21.99;52.92
44103;BME280;29769;42.178;24.742;2022-10-14T06:57:49;99978.94;;;22.18;52.55
44103;BME280;29769;42.178;24.742;2022-10-14T07:00:34;99981.16;;;22.55;51.18
44103;BME280;29769;42.178;24.742;2022-10-14T07:03:20;99987.59;;;22.07;51.63
44103;BME280;29769;42.178;24.742;2022-10-14T07:06:05;99983.81;;;21.32;54.61
44103;BME280;29769;42.178;24.742;2022-10-14T07:08:50;99983.56;;;21.36;54.54
44103;BME280;29769;42.178;24.742;2022-10-14T07:11:35;99978.19;;;21.03;55.50
44103;BME280;29769;42.178;24.742;2022-10-14T07:14:20;99983.13;;;20.78;57.06
44103;BME280;29769;42.178;24.742;2022-10-14T07:17:08;99974.75;;;21.01;56.31
44103;BME280;29769;42.178;24.742;2022-10-14T07:19:53;99978.06;;;21.55;54.57
44103;BME280;29769;42.178;24.742;2022-10-14T07:22:37;99978.69;;;21.76;53.71
44103;BME280;29769;42.178;24.742;2022-10-14T07:25:22;99981.75;;;22.31;52.05
44103;BME280;29769;42.178;24.742;2022-10-14T07:28:07;99985.13;;;21.07;55.35
44103;BME280;29769;42.178;24.742;2022-10-14T07:33:42;99973.72;;;21.37;54.90
44103;BME280;29769;42.178;24.742;2022-10-14T07:36:26;99973.09;;;21.16;56.11
44103;BME280;29769;42.178;24.742;2022-10-14T07:39:11;99964.78;;;22.16;53.56
44103;BME280;29769;42.178;24.742;2022-10-14T07:41:56;99964.31;;;22.53;50.69
44103;BME280;29769;42.178;24.742;2022-10-14T07:44:41;99959.53;;;22.88;50.08
44103;BME280;29769;42.178;24.742;2022-10-14T07:47:25;99954.44;;;23.55;48.34
44103;BME280;29769;42.178;24.742;2022-10-14T07:50:10;99958.28;;;23.65;47.68
44103;BME280;29769;42.178;24.742;2022-10-14T07:52:54;99962.31;;;23.01;49.29
44103;BME280;29769;42.178;24.742;2022-10-14T07:55:42;99957.25;;;22.52;50.11
44103;BME280;29769;42.178;24.742;2022-10-14T07:58:28;99965.19;;;22.08;52.16
44103;BME280;29769;42.178;24.742;2022-10-14T08:01:13;99967.19;;;22.21;52.27
44103;BME280;29769;42.178;24.742;2022-10-14T08:03:59;99975.31;;;21.56;53.75
44103;BME280;29769;42.178;24.742;2022-10-14T08:06:45;99963.75;;;21.56;53.86
44103;BME280;29769;42.178;24.742;2022-10-14T08:09:30;99973.00;;;21.66;53.48
44103;BME280;29769;42.178;24.742;2022-10-14T08:12:14;99968.03;;;20.60;57.26
44103;BME280;29769;42.178;24.742;2022-10-14T08:14:59;99967.38;;;20.03;59.82
44103;BME280;29769;42.178;24.742;2022-10-14T08:17:44;99971.50;;;20.45;59.44
44103;BME280;29769;42.178;24.742;2022-10-14T08:20:29;99970.84;;;20.91;57.46
44103;BME280;29769;42.178;24.742;2022-10-14T08:23:13;99953.72;;;21.44;55.68
44103;BME280;29769;42.178;24.742;2022-10-14T08:25:58;99961.84;;;21.89;54.30
44103;BME280;29769;42.178;24.742;2022-10-14T08:28:43;99951.09;;;22.50;52.26
44103;BME280;29769;42.178;24.742;2022-10-14T08:31:27;99957.25;;;22.52;51.40
44103;BME280;29769;42.178;24.742;2022-10-14T08:34:12;99946.28;;;22.85;50.64
44103;BME280;29769;42.178;24.742;2022-10-14T08:36:57;99943.69;;;22.10;51.91
44103;BME280;29769;42.178;24.742;2022-10-14T08:39:42;99950.94;;;21.77;54.11
44103;BME280;29769;42.178;24.742;2022-10-14T08:42:33;99948.25;;;22.08;53.11
44103;BME280;29769;42.178;24.742;2022-10-14T08:45:26;99950.97;;;22.82;51.03
44103;BME280;29769;42.178;24.742;2022-10-14T08:48:15;99950.31;;;23.49;49.40
44103;BME280;29769;42.178;24.742;2022-10-14T08:51:08;99941.78;;;24.24;47.38
44103;BME280;29769;42.178;24.742;2022-10-14T08:53:54;99941.16;;;24.33;45.29
44103;BME280;29769;42.178;24.742;2022-10-14T08:56:42;99946.09;;;24.13;45.80
44103;BME280;29769;42.178;24.742;2022-10-14T08:59:26;99951.31;;;24.80;44.79
44103;BME280;29769;42.178;24.742;2022-10-14T09:02:45;99950.97;;;24.47;44.88
44103;BME280;29769;42.178;24.742;2022-10-14T09:05:22;99955.25;;;24.37;44.77
44103;BME280;29769;42.178;24.742;2022-10-14T09:08:09;99947.44;;;24.47;44.18
44103;BME280;29769;42.178;24.742;2022-10-14T09:10:57;99950.84;;;24.09;45.03
44103;BME280;29769;42.178;24.742;2022-10-14T09:13:44;99941.72;;;24.39;44.94
44103;BME280;29769;42.178;24.742;2022-10-14T09:16:30;99948.00;;;24.77;43.95
44103;BME280;29769;42.178;24.742;2022-10-14T09:19:36;99935.44;;;25.03;42.80
44103;BME280;29769;42.178;24.742;2022-10-14T09:22:23;99943.84;;;23.80;44.78
44103;BME280;29769;42.178;24.742;2022-10-14T09:25:11;99934.44;;;23.46;45.50
44103;BME280;29769;42.178;24.742;2022-10-14T09:27:57;99935.19;;;23.48;46.14
44103;BME280;29769;42.178;24.742;2022-10-14T09:30:42;99930.41;;;23.80;45.23
44103;BME280;29769;42.178;24.742;2022-10-14T09:33:26;99931.47;;;24.31;42.86
44103;BME280;29769;42.178;24.742;2022-10-14T09:38:56;99936.97;;;24.29;43.21
44103;BME280;29769;42.178;24.742;2022-10-14T09:41:41;99922.06;;;23.29;45.20
44103;BME280;29769;42.178;24.742;2022-10-14T09:44:26;99933.19;;;23.09;44.79
44103;BME280;29769;42.178;24.742;2022-10-14T09:47:11;99923.88;;;22.72;45.55
44103;BME280;29769;42.178;24.742;2022-10-14T09:49:57;99917.34;;;22.76;45.93
44103;BME280;29769;42.178;24.742;2022-10-14T09:52:43;99926.19;;;23.07;45.39
44103;BME280;29769;42.178;24.742;2022-10-14T09:55:32;99920.59;;;23.38;44.11
44103;BME280;29769;42.178;24.742;2022-10-14T09:58:17;99923.38;;;23.51;42.21
44103;BME280;29769;42.178;24.742;2022-10-14T10:01:06;99924.25;;;23.37;41.87
44103;BME280;29769;42.178;24.742;2022-10-14T10:03:56;99923.31;;;23.10;42.85
44103;BME280;29769;42.178;24.742;2022-10-14T10:07:02;99918.34;;;22.75;44.09
44103;BME280;29769;42.178;24.742;2022-10-14T10:09:55;99926.28;;;22.47;43.86
44103;BME280;29769;42.178;24.742;2022-10-14T10:12:40;99913.91;;;22.74;43.25
44103;BME280;29769;42.178;24.742;2022-10-14T10:15:29;99918.53;;;23.00;41.87
44103;BME280;29769;42.178;24.742;2022-10-14T10:18:17;99908.56;;;22.74;43.22
44103;BME280;29769;42.178;24.742;2022-10-14T10:21:03;99911.88;;;22.20;43.63
44103;BME280;29769;42.178;24.742;2022-10-14T10:24:01;99902.84;;;22.65;43.87
44103;BME280;29769;42.178;24.742;2022-10-14T10:26:46;99899.41;;;22.18;44.46
44103;BME280;29769;42.178;24.742;2022-10-14T10:29:31;99902.81;;;22.06;45.05
44103;BME280;29769;42.178;24.742;2022-10-14T10:41:13;99878.28;;;22.86;42.25
44103;BME280;29769;42.178;24.742;2022-10-14T11:04:26;99853.81;;;25.15;37.72
44103;BME280;29769;42.178;24.742;2022-10-14T11:19:27;99840.53;;;24.88;36.19
44103;BME280;29769;42.178;24.742;2022-10-14T11:28:36;99813.28;;;24.93;35.77
44103;BME280;29769;42.178;24.742;2022-10-14T11:40:26;99800.41;;;24.34;35.83
44103;BME280;29769;42.178;24.742;2022-10-14T11:43:21;99796.84;;;24.47;35.06
44103;BME280;29769;42.178;24.742;2022-10-14T11:46:13;99791.53;;;24.58;35.43
44103;BME280;29769;42.178;24.742;2022-10-14T11:49:03;99785.72;;;24.76;34.89
44103;BME280;29769;42.178;24.742;2022-10-14T11:51:53;99779.31;;;24.41;35.74
44103;BME280;29769;42.178;24.742;2022-10-14T11:57:32;99796.38;;;23.63;37.56
44103;BME280;29769;42.178;24.742;2022-10-14T12:00:19;99786.00;;;23.71;37.24
44103;BME280;29769;42.178;24.742;2022-10-14T12:03:11;99780.81;;;23.80;36.85
44103;BME280;29769;42.178;24.742;2022-10-14T12:08:58;99768.56;;;24.16;36.48
44103;BME280;29769;42.178;24.742;2022-10-14T12:11:45;99767.69;;;24.28;35.99
44103;BME280;29769;42.178;24.742;2022-10-14T12:14:36;99768.50;;;24.03;36.10
44103;BME280;29769;42.178;24.742;2022-10-14T12:23:03;99764.03;;;24.42;35.89
44103;BME280;29769;42.178;24.742;2022-10-14T12:25:55;99768.47;;;23.65;36.54
44103;BME280;29769;42.178;24.742;2022-10-14T12:28:42;99767.78;;;23.08;38.01
44103;BME280;29769;42.178;24.742;2022-10-14T12:34:22;99764.28;;;22.93;38.92
44103;BME280;29769;42.178;24.742;2022-10-14T12:37:47;99763.28;;;23.09;38.37
44103;BME280;29769;42.178;24.742;2022-10-14T12:40:22;99764.41;;;23.19;37.91
44103;BME280;29769;42.178;24.742;2022-10-14T12:46:19;99760.09;;;22.75;38.69
44103;BME280;29769;42.178;24.742;2022-10-14T12:49:03;99765.25;;;23.19;38.68
44103;BME280;29769;42.178;24.742;2022-10-14T12:51:51;99749.94;;;23.48;37.69
44103;BME280;29769;42.178;24.742;2022-10-14T12:54:44;99745.47;;;23.74;37.42
44103;BME280;29769;42.178;24.742;2022-10-14T12:57:30;99748.06;;;23.75;37.33
44103;BME280;29769;42.178;24.742;2022-10-14T13:03:15;99746.03;;;23.66;37.07
44103;BME280;29769;42.178;24.742;2022-10-14T13:15:03;99743.44;;;23.11;37.79
44103;BME280;29769;42.178;24.742;2022-10-14T13:17:48;99741.06;;;23.07;38.00
44103;BME280;29769;42.178;24.742;2022-10-14T13:29:13;99744.47;;;22.68;38.98
44103;BME280;29769;42.178;24.742;2022-10-14T13:40:38;99732.34;;;20.69;44.24
44103;BME280;29769;42.178;24.742;2022-10-14T13:46:15;99736.81;;;19.52;48.48
44103;BME280;29769;42.178;24.742;2022-10-14T13:49:02;99734.22;;;19.15;49.55
44103;BME280;29769;42.178;24.742;2022-10-14T13:51:53;99732.84;;;18.89;50.70
44103;BME280;29769;42.178;24.742;2022-10-14T13:54:39;99729.91;;;18.77;51.45
44103;BME280;29769;42.178;24.742;2022-10-14T13:57:24;99733.00;;;18.67;52.03
44103;BME280;29769;42.178;24.742;2022-10-14T14:00:25;99725.84;;;18.49;52.29
44103;BME280;29769;42.178;24.742;2022-10-14T14:03:16;99726.47;;;18.36;52.08
44103;BME280;29769;42.178;24.742;2022-10-14T14:06:11;99728.59;;;18.29;52.89
44103;BME280;29769;42.178;24.742;2022-10-14T14:08:57;99728.84;;;18.23;53.67
44103;BME280;29769;42.178;24.742;2022-10-14T14:11:42;99727.97;;;18.22;54.30
44103;BME280;29769;42.178;24.742;2022-10-14T14:14:50;99723.94;;;18.14;54.80
44103;BME280;29769;42.178;24.742;2022-10-14T14:17:35;99732.56;;;18.00;55.38
44103;BME280;29769;42.178;24.742;2022-10-14T14:20:24;99727.91;;;18.05;55.30
44103;BME280;29769;42.178;24.742;2022-10-14T14:23:11;99732.44;;;18.03;55.27
44103;BME280;29769;42.178;24.742;2022-10-14T14:25:56;99733.22;;;18.05;55.35
44103;BME280;29769;42.178;24.742;2022-10-14T14:28:54;99721.13;;;17.98;55.19
44103;BME280;29769;42.178;24.742;2022-10-14T14:31:38;99730.50;;;17.87;55.90
44103;BME280;29769;42.178;24.742;2022-10-14T14:34:23;99730.72;;;17.82;56.60
44103;BME280;29769;42.178;24.742;2022-10-14T14:37:12;99730.81;;;17.81;57.02
44103;BME280;29769;42.178;24.742;2022-10-14T14:39:58;99740.22;;;17.88;57.45
44103;BME280;29769;42.178;24.742;2022-10-14T14:42:44;99744.34;;;17.95;56.78
44103;BME280;29769;42.178;24.742;2022-10-14T14:45:31;99742.88;;;18.08;56.45
44103;BME280;29769;42.178;24.742;2022-10-14T14:48:17;99754.41;;;18.27;55.92
44103;BME280;29769;42.178;24.742;2022-10-14T14:51:02;99751.97;;;18.41;55.52
44103;BME280;29769;42.178;24.742;2022-10-14T14:53:49;99765.94;;;18.46;55.16
44103;BME280;29769;42.178;24.742;2022-10-14T14:56:42;99755.13;;;18.49;55.58
44103;BME280;29769;42.178;24.742;2022-10-14T14:59:32;99757.31;;;18.41;56.64
44103;BME280;29769;42.178;24.742;2022-10-14T15:02:19;99763.63;;;18.20;59.15
44103;BME280;29769;42.178;24.742;2022-10-14T15:05:08;99764.97;;;17.69;63.70
44103;BME280;29769;42.178;24.742;2022-10-14T15:07:54;99766.34;;;17.16;66.34
44103;BME280;29769;42.178;24.742;2022-10-14T15:10:39;99770.09;;;16.88;70.00
44103;BME280;29769;42.178;24.742;2022-10-14T15:16:38;99777.84;;;16.48;75.94
44103;BME280;29769;42.178;24.742;2022-10-14T15:19:26;99775.63;;;16.36;79.04
44103;BME280;29769;42.178;24.742;2022-10-14T15:27:47;99764.56;;;16.25;87.91
44103;BME280;29769;42.178;24.742;2022-10-14T15:33:25;99761.78;;;16.51;88.96
44103;BME280;29769;42.178;24.742;2022-10-14T15:36:11;99761.84;;;16.50;88.30
44103;BME280;29769;42.178;24.742;2022-10-14T15:38:55;99750.38;;;16.26;100.00
44103;BME280;29769;42.178;24.742;2022-10-14T15:41:42;99750.03;;;16.12;98.62
44103;BME280;29769;42.178;24.742;2022-10-14T15:44:27;99752.06;;;16.03;98.65
44103;BME280;29769;42.178;24.742;2022-10-14T15:47:12;99748.84;;;15.95;95.19
44103;BME280;29769;42.178;24.742;2022-10-14T15:50:04;99746.34;;;15.91;93.46
44103;BME280;29769;42.178;24.742;2022-10-14T15:52:49;99743.13;;;15.83;92.79
44103;BME280;29769;42.178;24.742;2022-10-14T15:55:36;99756.53;;;15.78;94.68
44103;BME280;29769;42.178;24.742;2022-10-14T15:58:22;99745.00;;;15.79;97.31
44103;BME280;29769;42.178;24.742;2022-10-14T16:01:07;99745.94;;;15.78;99.55
44103;BME280;29769;42.178;24.742;2022-10-14T16:03:57;99752.47;;;15.68;100.00
44103;BME280;29769;42.178;24.742;2022-10-14T16:06:42;99757.88;;;15.65;98.44
44103;BME280;29769;42.178;24.742;2022-10-14T16:09:26;99759.78;;;15.62;94.47
44103;BME280;29769;42.178;24.742;2022-10-14T16:12:12;99755.56;;;15.56;97.75
44103;BME280;29769;42.178;24.742;2022-10-14T16:14:57;99756.97;;;15.40;100.00
44103;BME280;29769;42.178;24.742;2022-10-14T16:17:42;99753.81;;;15.29;100.00
44103;BME280;29769;42.178;24.742;2022-10-14T16:20:26;99748.78;;;15.21;100.00
44103;BME280;29769;42.178;24.742;2022-10-14T16:23:15;99755.91;;;15.19;100.00
44103;BME280;29769;42.178;24.742;2022-10-14T16:26:00;99758.44;;;15.22;100.00
44103;BME280;29769;42.178;24.742;2022-10-14T16:28:45;99773.38;;;15.25;100.00
44103;BME280;29769;42.178;24.742;2022-10-14T16:31:30;99784.09;;;15.22;100.00
44103;BME280;29769;42.178;24.742;2022-10-14T16:34:16;99769.97;;;15.21;100.00
44103;BME280;29769;42.178;24.742;2022-10-14T16:37:01;99780.72;;;15.17;100.00
44103;BME280;29769;42.178;24.742;2022-10-14T16:39:45;99778.44;;;15.04;100.00
44103;BME280;29769;42.178;24.742;2022-10-14T16:42:30;99774.44;;;14.91;100.00
44103;BME280;29769;42.178;24.742;2022-10-14T16:45:15;99783.41;;;14.87;100.00
44103;BME280;29769;42.178;24.742;2022-10-14T16:47:59;99785.25;;;14.85;100.00
44103;BME280;29769;42.178;24.742;2022-10-14T16:50:48;99797.50;;;14.89;100.00
44103;BME280;29769;42.178;24.742;2022-10-14T16:53:32;99817.44;;;14.99;100.00
44103;BME280;29769;42.178;24.742;2022-10-14T16:56:31;99829.22;;;15.19;100.00